sensor_id;sensor_type;location;lat;lon;timestamp;P1;durP1;ratioP1;P2;durP2;ratioP2
43256;SDS011;28860;43.212;27.934;2022-10-16T00:01:24;13.40;;;7.55;;
43256;SDS011;28860;43.212;27.934;2022-10-16T00:03:52;14.43;;;7.57;;
43256;SDS011;28860;43.212;27.934;2022-10-16T00:06:18;23.65;;;7.38;;
43256;SDS011;28860;43.212;27.934;2022-10-16T00:08:46;12.43;;;6.78;;
43256;SDS011;28860;43.212;27.934;2022-10-16T00:11:17;15.85;;;7.18;;
43256;SDS011;28860;43.212;27.934;2022-10-16T00:13:46;11.88;;;6.82;;
43256;SDS011;28860;43.212;27.934;2022-10-16T00:16:13;17.02;;;7.63;;
43256;SDS011;28860;43.212;27.934;2022-10-16T00:18:40;15.98;;;7.07;;
43256;SDS011;28860;43.212;27.934;2022-10-16T00:21:10;15.63;;;7.30;;
43256;SDS011;28860;43.212;27.934;2022-10-16T00:23:41;13.63;;;6.20;;
43256;SDS011;28860;43.212;27.934;2022-10-16T00:26:08;14.98;;;6.93;;
43256;SDS011;28860;43.212;27.934;2022-10-16T00:28:37;12.38;;;6.53;;
43256;SDS011;28860;43.212;27.934;2022-10-16T00:31:03;15.02;;;7.03;;
43256;SDS011;28860;43.212;27.934;2022-10-16T00:33:34;14.75;;;6.65;;
43256;SDS011;28860;43.212;27.934;2022-10-16T00:36:00;16.08;;;6.18;;
43256;SDS011;28860;43.212;27.934;2022-10-16T00:38:26;14.32;;;7.47;;
43256;SDS011;28860;43.212;27.934;2022-10-16T00:40:52;10.18;;;6.15;;
43256;SDS011;28860;43.212;27.934;2022-10-16T00:43:38;11.82;;;5.93;;
43256;SDS011;28860;43.212;27.934;2022-10-16T00:46:27;14.32;;;5.95;;
43256;SDS011;28860;43.212;27.934;2022-10-16T00:49:07;15.00;;;5.97;;
43256;SDS011;28860;43.212;27.934;2022-10-16T00:51:40;10.90;;;6.05;;
43256;SDS011;28860;43.212;27.934;2022-10-16T00:54:13;14.20;;;5.70;;
43256;SDS011;28860;43.212;27.934;2022-10-16T00:56:43;14.13;;;6.15;;
43256;SDS011;28860;43.212;27.934;2022-10-16T00:59:20;12.68;;;5.90;;
43256;SDS011;28860;43.212;27.934;2022-10-16T01:01:51;14.52;;;5.57;;
43256;SDS011;28860;43.212;27.934;2022-10-16T01:04:18;10.32;;;5.90;;
43256;SDS011;28860;43.212;27.934;2022-10-16T01:09:49;16.33;;;5.72;;
43256;SDS011;28860;43.212;27.934;2022-10-16T01:15:54;10.82;;;5.57;;
43256;SDS011;28860;43.212;27.934;2022-10-16T01:18:26;8.98;;;5.30;;
43256;SDS011;28860;43.212;27.934;2022-10-16T01:21:04;11.57;;;5.28;;
43256;SDS011;28860;43.212;27.934;2022-10-16T01:23:36;15.80;;;5.72;;
43256;SDS011;28860;43.212;27.934;2022-10-16T01:28:51;12.52;;;5.57;;
43256;SDS011;28860;43.212;27.934;2022-10-16T01:31:22;8.43;;;4.97;;
43256;SDS011;28860;43.212;27.934;2022-10-16T01:34:15;11.87;;;5.43;;
43256;SDS011;28860;43.212;27.934;2022-10-16T01:36:47;10.98;;;4.95;;
43256;SDS011;28860;43.212;27.934;2022-10-16T01:39:18;10.82;;;5.35;;
43256;SDS011;28860;43.212;27.934;2022-10-16T01:41:49;15.57;;;6.28;;
43256;SDS011;28860;43.212;27.934;2022-10-16T01:44:21;11.32;;;5.68;;
43256;SDS011;28860;43.212;27.934;2022-10-16T01:46:51;12.63;;;5.05;;
43256;SDS011;28860;43.212;27.934;2022-10-16T01:49:18;9.85;;;5.35;;
43256;SDS011;28860;43.212;27.934;2022-10-16T01:51:47;12.60;;;5.68;;
43256;SDS011;28860;43.212;27.934;2022-10-16T01:54:17;14.70;;;5.32;;
43256;SDS011;28860;43.212;27.934;2022-10-16T01:56:44;10.57;;;5.05;;
43256;SDS011;28860;43.212;27.934;2022-10-16T01:59:16;9.35;;;4.50;;
43256;SDS011;28860;43.212;27.934;2022-10-16T02:01:48;10.45;;;4.53;;
43256;SDS011;28860;43.212;27.934;2022-10-16T02:04:20;9.60;;;4.75;;
43256;SDS011;28860;43.212;27.934;2022-10-16T02:06:51;12.77;;;4.40;;
43256;SDS011;28860;43.212;27.934;2022-10-16T02:09:18;13.55;;;4.35;;
43256;SDS011;28860;43.212;27.934;2022-10-16T02:11:43;11.10;;;4.32;;
43256;SDS011;28860;43.212;27.934;2022-10-16T02:14:09;7.97;;;3.60;;
43256;SDS011;28860;43.212;27.934;2022-10-16T02:16:39;9.48;;;3.83;;
43256;SDS011;28860;43.212;27.934;2022-10-16T02:19:07;10.63;;;4.15;;
43256;SDS011;28860;43.212;27.934;2022-10-16T02:21:36;10.77;;;4.00;;
43256;SDS011;28860;43.212;27.934;2022-10-16T02:29:12;8.07;;;3.60;;
43256;SDS011;28860;43.212;27.934;2022-10-16T02:31:42;17.17;;;3.97;;
43256;SDS011;28860;43.212;27.934;2022-10-16T02:34:13;6.18;;;3.70;;
43256;SDS011;28860;43.212;27.934;2022-10-16T02:36:41;9.30;;;3.75;;
43256;SDS011;28860;43.212;27.934;2022-10-16T02:39:08;7.65;;;3.47;;
43256;SDS011;28860;43.212;27.934;2022-10-16T02:41:34;5.43;;;3.58;;
43256;SDS011;28860;43.212;27.934;2022-10-16T02:44:00;11.05;;;3.85;;
43256;SDS011;28860;43.212;27.934;2022-10-16T02:46:26;10.27;;;4.22;;
43256;SDS011;28860;43.212;27.934;2022-10-16T02:48:52;13.63;;;3.90;;
43256;SDS011;28860;43.212;27.934;2022-10-16T02:51:17;8.30;;;3.55;;
43256;SDS011;28860;43.212;27.934;2022-10-16T02:53:43;6.80;;;3.60;;
43256;SDS011;28860;43.212;27.934;2022-10-16T02:56:12;8.00;;;3.72;;
43256;SDS011;28860;43.212;27.934;2022-10-16T02:58:37;9.02;;;3.60;;
43256;SDS011;28860;43.212;27.934;2022-10-16T03:01:03;9.73;;;3.33;;
43256;SDS011;28860;43.212;27.934;2022-10-16T03:03:31;10.15;;;3.70;;
43256;SDS011;28860;43.212;27.934;2022-10-16T03:05:57;14.48;;;3.58;;
43256;SDS011;28860;43.212;27.934;2022-10-16T03:08:23;7.97;;;3.42;;
43256;SDS011;28860;43.212;27.934;2022-10-16T03:10:50;7.45;;;3.47;;
43256;SDS011;28860;43.212;27.934;2022-10-16T03:13:16;8.02;;;3.45;;
43256;SDS011;28860;43.212;27.934;2022-10-16T03:15:43;10.18;;;3.40;;
43256;SDS011;28860;43.212;27.934;2022-10-16T03:18:08;5.93;;;3.58;;
43256;SDS011;28860;43.212;27.934;2022-10-16T03:20:34;8.40;;;3.50;;
43256;SDS011;28860;43.212;27.934;2022-10-16T03:23:00;9.50;;;3.70;;
43256;SDS011;28860;43.212;27.934;2022-10-16T03:25:27;7.57;;;3.00;;
43256;SDS011;28860;43.212;27.934;2022-10-16T03:27:53;9.35;;;3.25;;
43256;SDS011;28860;43.212;27.934;2022-10-16T03:30:18;8.00;;;3.60;;
43256;SDS011;28860;43.212;27.934;2022-10-16T03:32:44;8.27;;;3.55;;
43256;SDS011;28860;43.212;27.934;2022-10-16T03:35:10;6.85;;;3.20;;
43256;SDS011;28860;43.212;27.934;2022-10-16T03:37:36;7.25;;;3.28;;
43256;SDS011;28860;43.212;27.934;2022-10-16T03:40:02;7.68;;;3.50;;
43256;SDS011;28860;43.212;27.934;2022-10-16T03:42:28;8.50;;;3.45;;
43256;SDS011;28860;43.212;27.934;2022-10-16T03:44:54;7.63;;;3.53;;
43256;SDS011;28860;43.212;27.934;2022-10-16T03:47:19;7.43;;;3.67;;
43256;SDS011;28860;43.212;27.934;2022-10-16T03:49:47;5.82;;;2.97;;
43256;SDS011;28860;43.212;27.934;2022-10-16T03:52:13;11.57;;;4.18;;
43256;SDS011;28860;43.212;27.934;2022-10-16T03:54:38;15.25;;;3.95;;
43256;SDS011;28860;43.212;27.934;2022-10-16T03:57:04;8.88;;;3.60;;
43256;SDS011;28860;43.212;27.934;2022-10-16T03:59:30;9.75;;;3.47;;
43256;SDS011;28860;43.212;27.934;2022-10-16T04:01:55;9.85;;;3.97;;
43256;SDS011;28860;43.212;27.934;2022-10-16T04:04:21;8.43;;;3.58;;
43256;SDS011;28860;43.212;27.934;2022-10-16T04:06:47;7.50;;;3.50;;
43256;SDS011;28860;43.212;27.934;2022-10-16T04:09:12;11.00;;;3.42;;
43256;SDS011;28860;43.212;27.934;2022-10-16T04:11:38;6.43;;;3.60;;
43256;SDS011;28860;43.212;27.934;2022-10-16T04:14:04;10.13;;;3.72;;
43256;SDS011;28860;43.212;27.934;2022-10-16T04:16:29;9.63;;;3.78;;
43256;SDS011;28860;43.212;27.934;2022-10-16T04:18:55;6.43;;;3.80;;
43256;SDS011;28860;43.212;27.934;2022-10-16T04:21:21;10.02;;;4.05;;
43256;SDS011;28860;43.212;27.934;2022-10-16T04:23:48;10.40;;;5.13;;
43256;SDS011;28860;43.212;27.934;2022-10-16T04:26:14;10.02;;;5.13;;
43256;SDS011;28860;43.212;27.934;2022-10-16T04:28:40;13.77;;;5.57;;
43256;SDS011;28860;43.212;27.934;2022-10-16T04:31:06;17.13;;;5.47;;
43256;SDS011;28860;43.212;27.934;2022-10-16T04:33:33;14.57;;;5.95;;
43256;SDS011;28860;43.212;27.934;2022-10-16T04:35:59;10.43;;;5.68;;
43256;SDS011;28860;43.212;27.934;2022-10-16T04:38:26;8.48;;;5.57;;
43256;SDS011;28860;43.212;27.934;2022-10-16T04:40:52;12.95;;;5.95;;
43256;SDS011;28860;43.212;27.934;2022-10-16T04:43:18;14.23;;;5.75;;
43256;SDS011;28860;43.212;27.934;2022-10-16T04:45:44;14.05;;;5.32;;
43256;SDS011;28860;43.212;27.934;2022-10-16T04:48:10;12.95;;;5.18;;
43256;SDS011;28860;43.212;27.934;2022-10-16T04:50:35;12.73;;;5.78;;
43256;SDS011;28860;43.212;27.934;2022-10-16T04:53:01;14.25;;;5.18;;
43256;SDS011;28860;43.212;27.934;2022-10-16T04:55:27;12.05;;;5.60;;
43256;SDS011;28860;43.212;27.934;2022-10-16T04:57:52;10.50;;;5.40;;
43256;SDS011;28860;43.212;27.934;2022-10-16T05:00:18;8.13;;;4.53;;
43256;SDS011;28860;43.212;27.934;2022-10-16T05:02:43;10.02;;;4.93;;
43256;SDS011;28860;43.212;27.934;2022-10-16T05:05:12;10.85;;;5.00;;
43256;SDS011;28860;43.212;27.934;2022-10-16T05:07:37;8.85;;;4.55;;
43256;SDS011;28860;43.212;27.934;2022-10-16T05:10:03;8.30;;;5.13;;
43256;SDS011;28860;43.212;27.934;2022-10-16T05:12:29;8.90;;;4.88;;
43256;SDS011;28860;43.212;27.934;2022-10-16T05:14:55;13.68;;;4.80;;
43256;SDS011;28860;43.212;27.934;2022-10-16T05:17:24;11.00;;;5.10;;
43256;SDS011;28860;43.212;27.934;2022-10-16T05:19:50;10.90;;;4.93;;
43256;SDS011;28860;43.212;27.934;2022-10-16T05:22:15;8.90;;;4.40;;
43256;SDS011;28860;43.212;27.934;2022-10-16T05:24:41;12.00;;;4.68;;
43256;SDS011;28860;43.212;27.934;2022-10-16T05:27:07;11.45;;;4.95;;
43256;SDS011;28860;43.212;27.934;2022-10-16T05:29:35;13.23;;;4.70;;
43256;SDS011;28860;43.212;27.934;2022-10-16T05:32:01;13.55;;;4.90;;
43256;SDS011;28860;43.212;27.934;2022-10-16T05:34:28;9.90;;;4.88;;
43256;SDS011;28860;43.212;27.934;2022-10-16T05:36:53;9.00;;;4.55;;
43256;SDS011;28860;43.212;27.934;2022-10-16T05:39:19;15.18;;;4.95;;
43256;SDS011;28860;43.212;27.934;2022-10-16T05:41:45;9.68;;;4.57;;
43256;SDS011;28860;43.212;27.934;2022-10-16T05:44:10;10.07;;;5.07;;
43256;SDS011;28860;43.212;27.934;2022-10-16T05:46:39;7.97;;;4.07;;
43256;SDS011;28860;43.212;27.934;2022-10-16T05:49:05;10.98;;;4.85;;
43256;SDS011;28860;43.212;27.934;2022-10-16T05:51:30;8.63;;;4.80;;
43256;SDS011;28860;43.212;27.934;2022-10-16T05:53:56;14.95;;;5.53;;
43256;SDS011;28860;43.212;27.934;2022-10-16T05:56:21;14.15;;;5.18;;
43256;SDS011;28860;43.212;27.934;2022-10-16T05:58:48;7.30;;;5.45;;
43256;SDS011;28860;43.212;27.934;2022-10-16T06:01:15;15.07;;;6.55;;
43256;SDS011;28860;43.212;27.934;2022-10-16T06:03:42;9.75;;;5.90;;
43256;SDS011;28860;43.212;27.934;2022-10-16T06:06:12;13.82;;;6.00;;
43256;SDS011;28860;43.212;27.934;2022-10-16T06:08:46;13.27;;;5.50;;
43256;SDS011;28860;43.212;27.934;2022-10-16T06:11:15;9.00;;;5.50;;
43256;SDS011;28860;43.212;27.934;2022-10-16T06:13:49;9.95;;;5.05;;
43256;SDS011;28860;43.212;27.934;2022-10-16T06:16:15;15.45;;;5.30;;
43256;SDS011;28860;43.212;27.934;2022-10-16T06:18:41;9.52;;;5.15;;
43256;SDS011;28860;43.212;27.934;2022-10-16T06:21:07;9.15;;;5.20;;
43256;SDS011;28860;43.212;27.934;2022-10-16T06:23:39;8.48;;;4.40;;
43256;SDS011;28860;43.212;27.934;2022-10-16T06:26:05;9.77;;;4.32;;
43256;SDS011;28860;43.212;27.934;2022-10-16T06:28:35;9.93;;;4.13;;
43256;SDS011;28860;43.212;27.934;2022-10-16T06:31:02;7.53;;;3.83;;
43256;SDS011;28860;43.212;27.934;2022-10-16T06:33:28;5.50;;;3.70;;
43256;SDS011;28860;43.212;27.934;2022-10-16T06:35:54;9.30;;;4.90;;
43256;SDS011;28860;43.212;27.934;2022-10-16T06:38:33;9.13;;;4.85;;
43256;SDS011;28860;43.212;27.934;2022-10-16T06:41:00;9.98;;;3.30;;
43256;SDS011;28860;43.212;27.934;2022-10-16T06:43:28;6.30;;;3.00;;
43256;SDS011;28860;43.212;27.934;2022-10-16T06:45:57;9.60;;;2.72;;
43256;SDS011;28860;43.212;27.934;2022-10-16T06:48:24;6.20;;;2.70;;
43256;SDS011;28860;43.212;27.934;2022-10-16T06:50:59;11.13;;;2.97;;
43256;SDS011;28860;43.212;27.934;2022-10-16T06:53:49;8.00;;;2.40;;
43256;SDS011;28860;43.212;27.934;2022-10-16T06:56:16;5.00;;;2.45;;
43256;SDS011;28860;43.212;27.934;2022-10-16T06:58:44;9.93;;;2.55;;
43256;SDS011;28860;43.212;27.934;2022-10-16T07:01:10;12.77;;;2.97;;
43256;SDS011;28860;43.212;27.934;2022-10-16T07:03:37;10.68;;;3.10;;
43256;SDS011;28860;43.212;27.934;2022-10-16T07:06:04;5.47;;;2.88;;
43256;SDS011;28860;43.212;27.934;2022-10-16T07:08:32;8.00;;;2.97;;
43256;SDS011;28860;43.212;27.934;2022-10-16T07:10:59;7.38;;;2.63;;
43256;SDS011;28860;43.212;27.934;2022-10-16T07:13:27;9.43;;;2.88;;
43256;SDS011;28860;43.212;27.934;2022-10-16T07:15:52;9.05;;;2.60;;
43256;SDS011;28860;43.212;27.934;2022-10-16T07:18:20;10.00;;;2.58;;
43256;SDS011;28860;43.212;27.934;2022-10-16T07:20:46;6.95;;;2.72;;
43256;SDS011;28860;43.212;27.934;2022-10-16T07:23:12;9.68;;;2.80;;
43256;SDS011;28860;43.212;27.934;2022-10-16T07:25:38;4.70;;;2.67;;
43256;SDS011;28860;43.212;27.934;2022-10-16T07:28:07;6.35;;;2.55;;
43256;SDS011;28860;43.212;27.934;2022-10-16T07:30:34;10.05;;;2.60;;
43256;SDS011;28860;43.212;27.934;2022-10-16T07:33:02;9.73;;;2.92;;
43256;SDS011;28860;43.212;27.934;2022-10-16T07:35:27;10.15;;;2.80;;
43256;SDS011;28860;43.212;27.934;2022-10-16T07:37:53;9.48;;;3.08;;
43256;SDS011;28860;43.212;27.934;2022-10-16T07:40:22;6.47;;;2.35;;
43256;SDS011;28860;43.212;27.934;2022-10-16T07:42:52;8.70;;;2.83;;
43256;SDS011;28860;43.212;27.934;2022-10-16T07:45:20;7.53;;;2.70;;
43256;SDS011;28860;43.212;27.934;2022-10-16T07:47:46;4.85;;;2.30;;
43256;SDS011;28860;43.212;27.934;2022-10-16T07:50:14;6.57;;;2.47;;
43256;SDS011;28860;43.212;27.934;2022-10-16T07:52:45;5.32;;;2.15;;
43256;SDS011;28860;43.212;27.934;2022-10-16T07:55:12;8.60;;;2.20;;
43256;SDS011;28860;43.212;27.934;2022-10-16T07:57:40;7.68;;;2.67;;
43256;SDS011;28860;43.212;27.934;2022-10-16T08:00:06;5.82;;;2.53;;
43256;SDS011;28860;43.212;27.934;2022-10-16T08:02:32;6.30;;;2.70;;
43256;SDS011;28860;43.212;27.934;2022-10-16T08:04:58;5.85;;;2.45;;
43256;SDS011;28860;43.212;27.934;2022-10-16T08:07:23;5.55;;;2.38;;
43256;SDS011;28860;43.212;27.934;2022-10-16T08:09:49;9.18;;;2.35;;
43256;SDS011;28860;43.212;27.934;2022-10-16T08:12:17;10.05;;;2.20;;
43256;SDS011;28860;43.212;27.934;2022-10-16T08:14:43;6.93;;;2.10;;
43256;SDS011;28860;43.212;27.934;2022-10-16T08:17:11;11.05;;;2.25;;
43256;SDS011;28860;43.212;27.934;2022-10-16T08:19:39;6.75;;;2.17;;
43256;SDS011;28860;43.212;27.934;2022-10-16T08:22:04;7.40;;;2.30;;
43256;SDS011;28860;43.212;27.934;2022-10-16T08:24:30;9.82;;;2.10;;
43256;SDS011;28860;43.212;27.934;2022-10-16T08:26:58;3.53;;;2.10;;
43256;SDS011;28860;43.212;27.934;2022-10-16T08:29:29;3.42;;;1.77;;
43256;SDS011;28860;43.212;27.934;2022-10-16T08:31:57;7.85;;;2.33;;
43256;SDS011;28860;43.212;27.934;2022-10-16T08:34:23;3.58;;;2.22;;
43256;SDS011;28860;43.212;27.934;2022-10-16T08:36:55;7.47;;;2.50;;
43256;SDS011;28860;43.212;27.934;2022-10-16T08:39:20;8.15;;;2.53;;
43256;SDS011;28860;43.212;27.934;2022-10-16T08:44:28;5.65;;;2.15;;
43256;SDS011;28860;43.212;27.934;2022-10-16T08:47:48;8.35;;;2.47;;
43256;SDS011;28860;43.212;27.934;2022-10-16T08:50:27;9.20;;;2.47;;
43256;SDS011;28860;43.212;27.934;2022-10-16T08:52:55;6.05;;;2.47;;
43256;SDS011;28860;43.212;27.934;2022-10-16T08:58:12;7.43;;;2.13;;
43256;SDS011;28860;43.212;27.934;2022-10-16T09:00:43;6.10;;;2.15;;
43256;SDS011;28860;43.212;27.934;2022-10-16T09:22:50;8.13;;;2.53;;
43256;SDS011;28860;43.212;27.934;2022-10-16T09:25:21;8.80;;;2.40;;
43256;SDS011;28860;43.212;27.934;2022-10-16T09:27:48;9.05;;;2.22;;
43256;SDS011;28860;43.212;27.934;2022-10-16T09:30:19;4.32;;;2.60;;
43256;SDS011;28860;43.212;27.934;2022-10-16T09:32:51;8.18;;;2.10;;
43256;SDS011;28860;43.212;27.934;2022-10-16T09:35:22;6.05;;;2.20;;
43256;SDS011;28860;43.212;27.934;2022-10-16T09:37:56;9.38;;;2.80;;
43256;SDS011;28860;43.212;27.934;2022-10-16T09:40:26;4.15;;;2.22;;
43256;SDS011;28860;43.212;27.934;2022-10-16T09:43:06;8.02;;;2.40;;
43256;SDS011;28860;43.212;27.934;2022-10-16T09:45:53;7.35;;;2.10;;
43256;SDS011;28860;43.212;27.934;2022-10-16T09:48:23;7.97;;;2.33;;
43256;SDS011;28860;43.212;27.934;2022-10-16T09:51:00;5.85;;;1.98;;
43256;SDS011;28860;43.212;27.934;2022-10-16T09:53:39;6.85;;;2.40;;
43256;SDS011;28860;43.212;27.934;2022-10-16T09:56:09;10.55;;;2.25;;
43256;SDS011;28860;43.212;27.934;2022-10-16T09:58:41;8.27;;;2.13;;
43256;SDS011;28860;43.212;27.934;2022-10-16T10:01:12;4.53;;;1.80;;
43256;SDS011;28860;43.212;27.934;2022-10-16T10:03:40;7.38;;;2.30;;
43256;SDS011;28860;43.212;27.934;2022-10-16T10:08:57;5.45;;;2.13;;
43256;SDS011;28860;43.212;27.934;2022-10-16T10:11:38;4.68;;;2.15;;
43256;SDS011;28860;43.212;27.934;2022-10-16T10:16:47;6.43;;;2.45;;
43256;SDS011;28860;43.212;27.934;2022-10-16T10:19:15;8.40;;;2.75;;
43256;SDS011;28860;43.212;27.934;2022-10-16T10:21:46;8.45;;;2.30;;
43256;SDS011;28860;43.212;27.934;2022-10-16T10:24:13;7.20;;;2.42;;
43256;SDS011;28860;43.212;27.934;2022-10-16T10:34:49;5.60;;;2.35;;
43256;SDS011;28860;43.212;27.934;2022-10-16T10:40:08;8.73;;;2.35;;
43256;SDS011;28860;43.212;27.934;2022-10-16T10:42:55;8.77;;;2.95;;
43256;SDS011;28860;43.212;27.934;2022-10-16T10:45:41;11.20;;;2.70;;
43256;SDS011;28860;43.212;27.934;2022-10-16T10:51:23;10.48;;;2.50;;
43256;SDS011;28860;43.212;27.934;2022-10-16T10:54:25;7.90;;;2.42;;
43256;SDS011;28860;43.212;27.934;2022-10-16T10:57:16;9.00;;;2.38;;
43256;SDS011;28860;43.212;27.934;2022-10-16T11:05:31;5.95;;;2.15;;
43256;SDS011;28860;43.212;27.934;2022-10-16T11:08:17;5.80;;;2.47;;
43256;SDS011;28860;43.212;27.934;2022-10-16T11:10:52;7.90;;;2.58;;
43256;SDS011;28860;43.212;27.934;2022-10-16T11:16:00;8.38;;;2.30;;
43256;SDS011;28860;43.212;27.934;2022-10-16T11:18:52;8.15;;;1.92;;
43256;SDS011;28860;43.212;27.934;2022-10-16T11:21:26;6.68;;;1.88;;
43256;SDS011;28860;43.212;27.934;2022-10-16T11:24:00;7.18;;;2.60;;
43256;SDS011;28860;43.212;27.934;2022-10-16T11:26:35;7.68;;;2.20;;
43256;SDS011;28860;43.212;27.934;2022-10-16T11:29:12;8.55;;;2.60;;
43256;SDS011;28860;43.212;27.934;2022-10-16T11:31:46;5.97;;;2.30;;
43256;SDS011;28860;43.212;27.934;2022-10-16T11:34:17;6.07;;;2.30;;
43256;SDS011;28860;43.212;27.934;2022-10-16T11:36:56;6.30;;;2.10;;
43256;SDS011;28860;43.212;27.934;2022-10-16T11:39:38;11.20;;;2.50;;
43256;SDS011;28860;43.212;27.934;2022-10-16T11:42:11;4.75;;;2.42;;
43256;SDS011;28860;43.212;27.934;2022-10-16T11:50:26;8.95;;;2.38;;
43256;SDS011;28860;43.212;27.934;2022-10-16T11:55:39;8.70;;;2.67;;
43256;SDS011;28860;43.212;27.934;2022-10-16T11:58:26;6.05;;;2.13;;
43256;SDS011;28860;43.212;27.934;2022-10-16T12:00:59;6.13;;;2.20;;
43256;SDS011;28860;43.212;27.934;2022-10-16T12:08:55;8.93;;;2.55;;
43256;SDS011;28860;43.212;27.934;2022-10-16T12:16:55;8.43;;;2.50;;
43256;SDS011;28860;43.212;27.934;2022-10-16T12:19:30;6.93;;;2.28;;
43256;SDS011;28860;43.212;27.934;2022-10-16T12:21:57;6.82;;;2.65;;
43256;SDS011;28860;43.212;27.934;2022-10-16T12:24:30;8.73;;;2.35;;
43256;SDS011;28860;43.212;27.934;2022-10-16T12:27:05;11.15;;;2.78;;
43256;SDS011;28860;43.212;27.934;2022-10-16T12:29:54;10.35;;;2.33;;
43256;SDS011;28860;43.212;27.934;2022-10-16T12:32:31;7.05;;;2.58;;
43256;SDS011;28860;43.212;27.934;2022-10-16T12:34:59;6.72;;;2.15;;
43256;SDS011;28860;43.212;27.934;2022-10-16T12:40:15;3.28;;;1.95;;
43256;SDS011;28860;43.212;27.934;2022-10-16T12:42:50;4.70;;;2.45;;
43256;SDS011;28860;43.212;27.934;2022-10-16T12:47:56;8.75;;;2.13;;
43256;SDS011;28860;43.212;27.934;2022-10-16T12:52:50;9.23;;;2.63;;
43256;SDS011;28860;43.212;27.934;2022-10-16T12:55:21;5.93;;;2.42;;
43256;SDS011;28860;43.212;27.934;2022-10-16T13:00:56;9.10;;;2.63;;
43256;SDS011;28860;43.212;27.934;2022-10-16T13:09:07;6.47;;;2.53;;
43256;SDS011;28860;43.212;27.934;2022-10-16T13:25:46;6.95;;;2.78;;
43256;SDS011;28860;43.212;27.934;2022-10-16T13:28:34;3.15;;;2.13;;
43256;SDS011;28860;43.212;27.934;2022-10-16T13:31:03;7.13;;;2.50;;
43256;SDS011;28860;43.212;27.934;2022-10-16T13:33:36;6.53;;;2.55;;
43256;SDS011;28860;43.212;27.934;2022-10-16T13:36:04;9.50;;;3.10;;
43256;SDS011;28860;43.212;27.934;2022-10-16T13:38:32;11.32;;;2.80;;
43256;SDS011;28860;43.212;27.934;2022-10-16T13:43:43;6.85;;;2.95;;
43256;SDS011;28860;43.212;27.934;2022-10-16T13:46:13;7.30;;;2.90;;
43256;SDS011;28860;43.212;27.934;2022-10-16T13:48:40;10.38;;;2.55;;
43256;SDS011;28860;43.212;27.934;2022-10-16T13:51:11;7.47;;;2.58;;
43256;SDS011;28860;43.212;27.934;2022-10-16T13:53:40;6.82;;;2.60;;
43256;SDS011;28860;43.212;27.934;2022-10-16T13:56:09;6.07;;;2.58;;
43256;SDS011;28860;43.212;27.934;2022-10-16T13:58:39;3.75;;;2.33;;
43256;SDS011;28860;43.212;27.934;2022-10-16T14:03:53;5.65;;;2.45;;
43256;SDS011;28860;43.212;27.934;2022-10-16T14:06:30;7.35;;;2.63;;
43256;SDS011;28860;43.212;27.934;2022-10-16T14:09:01;10.15;;;2.30;;
43256;SDS011;28860;43.212;27.934;2022-10-16T14:11:31;5.82;;;2.33;;
43256;SDS011;28860;43.212;27.934;2022-10-16T14:13:58;6.53;;;2.53;;
43256;SDS011;28860;43.212;27.934;2022-10-16T14:16:28;7.50;;;2.70;;
43256;SDS011;28860;43.212;27.934;2022-10-16T14:21:24;7.20;;;2.40;;
43256;SDS011;28860;43.212;27.934;2022-10-16T14:23:52;3.30;;;2.13;;
43256;SDS011;28860;43.212;27.934;2022-10-16T14:26:20;11.48;;;2.40;;
43256;SDS011;28860;43.212;27.934;2022-10-16T14:28:49;5.80;;;2.40;;
43256;SDS011;28860;43.212;27.934;2022-10-16T14:31:27;8.77;;;2.60;;
43256;SDS011;28860;43.212;27.934;2022-10-16T14:33:55;5.13;;;2.13;;
43256;SDS011;28860;43.212;27.934;2022-10-16T14:36:21;9.52;;;2.35;;
43256;SDS011;28860;43.212;27.934;2022-10-16T14:38:55;7.03;;;1.98;;
43256;SDS011;28860;43.212;27.934;2022-10-16T14:41:24;8.32;;;2.45;;
43256;SDS011;28860;43.212;27.934;2022-10-16T14:43:52;7.68;;;2.30;;
43256;SDS011;28860;43.212;27.934;2022-10-16T14:46:21;3.50;;;2.10;;
43256;SDS011;28860;43.212;27.934;2022-10-16T14:51:28;10.85;;;2.20;;
43256;SDS011;28860;43.212;27.934;2022-10-16T14:53:54;6.20;;;2.20;;
43256;SDS011;28860;43.212;27.934;2022-10-16T14:56:21;7.68;;;2.40;;
43256;SDS011;28860;43.212;27.934;2022-10-16T14:58:52;6.28;;;2.28;;
43256;SDS011;28860;43.212;27.934;2022-10-16T15:01:19;10.52;;;2.55;;
43256;SDS011;28860;43.212;27.934;2022-10-16T15:03:45;11.27;;;2.55;;
43256;SDS011;28860;43.212;27.934;2022-10-16T15:06:11;8.48;;;2.83;;
43256;SDS011;28860;43.212;27.934;2022-10-16T15:08:38;6.90;;;3.35;;
43256;SDS011;28860;43.212;27.934;2022-10-16T15:11:04;7.47;;;2.78;;
43256;SDS011;28860;43.212;27.934;2022-10-16T15:13:30;6.25;;;2.75;;
43256;SDS011;28860;43.212;27.934;2022-10-16T15:15:55;8.63;;;2.65;;
43256;SDS011;28860;43.212;27.934;2022-10-16T15:18:21;12.82;;;3.08;;
43256;SDS011;28860;43.212;27.934;2022-10-16T15:20:48;8.77;;;3.08;;
43256;SDS011;28860;43.212;27.934;2022-10-16T15:23:19;12.88;;;3.10;;
43256;SDS011;28860;43.212;27.934;2022-10-16T15:25:50;9.20;;;3.05;;
43256;SDS011;28860;43.212;27.934;2022-10-16T15:28:20;8.73;;;2.47;;
43256;SDS011;28860;43.212;27.934;2022-10-16T15:30:48;7.63;;;3.25;;
43256;SDS011;28860;43.212;27.934;2022-10-16T15:33:19;6.15;;;3.08;;
43256;SDS011;28860;43.212;27.934;2022-10-16T15:35:48;9.23;;;2.65;;
43256;SDS011;28860;43.212;27.934;2022-10-16T15:38:15;7.82;;;3.10;;
43256;SDS011;28860;43.212;27.934;2022-10-16T15:40:42;8.52;;;2.97;;
43256;SDS011;28860;43.212;27.934;2022-10-16T15:43:07;8.02;;;3.00;;
43256;SDS011;28860;43.212;27.934;2022-10-16T15:45:33;8.40;;;2.85;;
43256;SDS011;28860;43.212;27.934;2022-10-16T15:48:02;8.98;;;3.20;;
43256;SDS011;28860;43.212;27.934;2022-10-16T15:50:28;7.50;;;2.83;;
43256;SDS011;28860;43.212;27.934;2022-10-16T15:52:55;10.25;;;3.20;;
43256;SDS011;28860;43.212;27.934;2022-10-16T15:55:21;8.23;;;3.65;;
43256;SDS011;28860;43.212;27.934;2022-10-16T15:57:46;14.80;;;3.33;;
43256;SDS011;28860;43.212;27.934;2022-10-16T16:00:13;5.00;;;3.38;;
43256;SDS011;28860;43.212;27.934;2022-10-16T16:02:41;7.70;;;3.60;;
43256;SDS011;28860;43.212;27.934;2022-10-16T16:05:08;7.47;;;3.80;;
43256;SDS011;28860;43.212;27.934;2022-10-16T16:07:35;10.38;;;4.57;;
43256;SDS011;28860;43.212;27.934;2022-10-16T16:10:03;17.20;;;4.72;;
43256;SDS011;28860;43.212;27.934;2022-10-16T16:12:31;10.35;;;4.45;;
43256;SDS011;28860;43.212;27.934;2022-10-16T16:14:59;11.07;;;4.60;;
43256;SDS011;28860;43.212;27.934;2022-10-16T16:17:25;10.25;;;4.75;;
43256;SDS011;28860;43.212;27.934;2022-10-16T16:19:53;11.50;;;5.00;;
43256;SDS011;28860;43.212;27.934;2022-10-16T16:22:19;9.88;;;5.18;;
43256;SDS011;28860;43.212;27.934;2022-10-16T16:24:45;14.75;;;5.43;;
43256;SDS011;28860;43.212;27.934;2022-10-16T16:27:11;13.52;;;4.78;;
43256;SDS011;28860;43.212;27.934;2022-10-16T16:29:39;13.00;;;4.88;;
43256;SDS011;28860;43.212;27.934;2022-10-16T16:32:05;12.23;;;5.82;;
43256;SDS011;28860;43.212;27.934;2022-10-16T16:34:33;12.38;;;5.68;;
43256;SDS011;28860;43.212;27.934;2022-10-16T16:36:59;11.77;;;5.68;;
43256;SDS011;28860;43.212;27.934;2022-10-16T16:39:28;15.10;;;5.78;;
43256;SDS011;28860;43.212;27.934;2022-10-16T16:41:55;12.25;;;5.85;;
43256;SDS011;28860;43.212;27.934;2022-10-16T16:44:21;12.55;;;5.32;;
43256;SDS011;28860;43.212;27.934;2022-10-16T16:46:51;15.25;;;5.80;;
43256;SDS011;28860;43.212;27.934;2022-10-16T16:49:17;13.55;;;5.05;;